Airfield :
LOGIN :

Register | Disclaimer

   EN    FR    IT 

 










Legend :    VFR   Marginal VFR   IFR   Intensive IFR   Very Intensive IFR
Visi :
Ceiling :
>= 8 km
>= 3000ft
5 to 8 km
1000 to 3000 ft
1500m to 5 km
500 to 1000 ft
800 to 1500m
200 to 500 ft
< 800m
< 200 ft
Symbols :   Thunderstorms  Fog  Heavy snow  Heavy precipitations  Wind > 20 kt
SIGMETs :     Misc.  Thunderstorms  Icing  Turbulence  Mountain Waves  Volcanic Ashes







- Airport Elevation : 1947 ft
- IATA code : OBF


EDMO - Oberpfaffenhofen

CURRENT METAR :
  • 261750Z 27005KT 9999 FEW047 BKN053 04/M04 Q1028

EXPIRED METARs :
  • 261720Z 29007KT 9999 FEW048 BKN058 05/M04 Q1027
  • 261650Z 28008KT 250V310 9999 FEW047 BKN056 06/M04 Q1027
  • 261620Z 27006KT 240V310 9999 FEW047 BKN056 06/M05 Q1027
  • 261550Z 27008KT 240V300 9999 FEW045 BKN056 06/M05 Q1027
  • 261520Z 28009KT 250V320 9999 FEW045 BKN051 06/M05 Q1027

TAF TAF EDMO
Valid from the 26 at 18:00 until the 27 at 03:00 UTC


261700Z 2618/2703 25005KT 9999 SCT045
No reported NOTAMs for that airfield.



MET'MAP, your aeronautical weather chart ! - Copyright ORBIFLY December 2007 - Disclaimer

ORBIFLY MET'MAP TEAM :

Programming & Development : Alexandra Zaïnal
Concept & Development : Baudouin d'Aumeries
Co-Development & Prog : Marc-Olivier Méhu
Technical & hardware support : Manuel Goepfert

Contact : metmap@orbifly.com




SOURCES & CREDITS :

   NOAA